createdAt,value
2019-01-10T00:00:10.197Z,121.10
2019-01-10T00:02:37.628Z,119.53
2019-01-10T00:05:06.160Z,124.20
2019-01-10T00:07:33.609Z,127.13
2019-01-10T00:10:01.004Z,123.10
2019-01-10T00:12:29.693Z,124.37
2019-01-10T00:14:57.150Z,124.60
2019-01-10T00:17:28.533Z,125.20
2019-01-10T00:19:55.877Z,99.27
2019-01-10T00:22:25.015Z,75.80
2019-01-10T00:24:52.315Z,68.63
2019-01-10T00:27:20.241Z,75.23
2019-01-10T00:29:47.935Z,84.93
2019-01-10T00:32:15.624Z,81.43
2019-01-10T00:34:43.294Z,70.30
2019-01-10T00:37:10.838Z,85.90
2019-01-10T00:39:39.443Z,73.03
2019-01-10T00:42:07.070Z,76.80
2019-01-10T00:44:34.678Z,70.97
2019-01-10T00:47:02.196Z,62.10
2019-01-10T00:49:29.703Z,61.93
2019-01-10T00:51:57.109Z,67.57
2019-01-10T00:54:24.483Z,60.33
2019-01-10T00:56:51.997Z,68.87
2019-01-10T00:59:19.655Z,59.50
2019-01-10T01:01:47.114Z,61.10
2019-01-10T01:04:14.602Z,64.37
2019-01-10T01:06:42.033Z,60.90
2019-01-10T01:09:11.854Z,66.27
2019-01-10T01:11:39.315Z,69.57
2019-01-10T01:14:06.890Z,68.97
2019-01-10T01:16:34.360Z,68.93
2019-01-10T01:19:01.768Z,65.40
2019-01-10T01:21:29.264Z,60.10
2019-01-10T01:23:56.614Z,61.27
2019-01-10T01:26:24.070Z,61.70
2019-01-10T01:28:51.632Z,66.27
2019-01-10T01:31:19.047Z,63.83
2019-01-10T01:33:46.442Z,67.00
2019-01-10T01:36:13.908Z,63.27
2019-01-10T01:38:44.060Z,62.87
2019-01-10T01:41:11.375Z,62.00
2019-01-10T01:43:38.820Z,63.60
2019-01-10T01:46:07.754Z,60.67
2019-01-10T01:48:35.288Z,62.33
2019-01-10T01:51:03.494Z,62.93
2019-01-10T01:53:30.879Z,65.23
2019-01-10T01:55:58.304Z,64.70
2019-01-10T01:58:27.836Z,62.47
2019-01-10T02:00:55.438Z,64.73
2019-01-10T02:03:25.553Z,65.70
2019-01-10T02:05:53.224Z,66.37
2019-01-10T02:08:20.686Z,64.60
2019-01-10T02:10:48.108Z,64.83
2019-01-10T02:13:16.873Z,52.87
2019-01-10T02:15:44.781Z,59.00
2019-01-10T02:18:12.200Z,56.43
2019-01-10T02:20:39.682Z,58.70
2019-01-10T02:23:07.171Z,56.07
2019-01-10T02:25:34.478Z,55.03
2019-01-10T02:28:01.944Z,56.90
2019-01-10T02:30:30.360Z,55.60
2019-01-10T02:32:57.994Z,56.33
2019-01-10T02:35:25.605Z,56.87
2019-01-10T02:37:55.356Z,55.50
2019-01-10T02:40:22.197Z,54.43
2019-01-10T02:42:49.558Z,58.90
2019-01-10T02:45:18.047Z,55.10
2019-01-10T02:47:45.440Z,57.33
2019-01-10T02:50:14.470Z,59.30
2019-01-10T02:52:41.987Z,57.70
2019-01-10T02:55:09.487Z,59.03
2019-01-10T02:57:36.921Z,56.83
2019-01-10T03:00:05.968Z,57.27
2019-01-10T03:02:33.465Z,61.57
2019-01-10T03:05:00.910Z,55.63
2019-01-10T03:07:28.248Z,57.33
2019-01-10T03:09:55.941Z,56.33
2019-01-10T03:12:23.361Z,58.03
2019-01-10T03:14:51.931Z,58.53
2019-01-10T03:17:19.273Z,59.27
2019-01-10T03:19:46.823Z,56.80
2019-01-10T03:22:14.166Z,51.90
2019-01-10T03:24:41.546Z,53.57
2019-01-10T03:27:08.928Z,56.80
2019-01-10T03:29:36.348Z,61.23
2019-01-10T03:32:03.790Z,56.87
2019-01-10T03:34:31.244Z,57.23
2019-01-10T03:36:58.855Z,55.20
2019-01-10T03:39:28.250Z,56.43
2019-01-10T03:41:55.713Z,62.47
2019-01-10T03:44:23.106Z,56.03
2019-01-10T03:46:50.553Z,58.47
2019-01-10T03:49:17.898Z,58.10
2019-01-10T03:51:47.374Z,54.13
2019-01-10T03:54:14.713Z,52.17
2019-01-10T03:56:42.183Z,54.07
2019-01-10T03:59:09.539Z,52.57
2019-01-10T04:01:36.959Z,54.07
2019-01-10T04:04:04.412Z,49.07
2019-01-10T04:06:31.773Z,50.03
2019-01-10T04:08:59.232Z,52.00
2019-01-10T04:11:26.773Z,52.60
2019-01-10T04:13:57.526Z,47.50
2019-01-10T04:16:23.255Z,41.17
2019-01-10T04:18:50.688Z,43.00
2019-01-10T04:21:18.092Z,43.93
2019-01-10T04:23:45.464Z,44.87
2019-01-10T04:26:12.861Z,41.83
2019-01-10T04:28:40.327Z,42.50
2019-01-10T04:31:07.737Z,42.37
2019-01-10T04:33:35.227Z,45.17
2019-01-10T04:36:02.575Z,46.00
2019-01-10T04:38:30.039Z,48.80
2019-01-10T04:40:57.494Z,44.57
2019-01-10T04:43:24.923Z,44.83
2019-01-10T04:45:52.268Z,43.83
2019-01-10T04:48:19.734Z,45.83
2019-01-10T04:50:47.139Z,49.50
2019-01-10T04:53:14.472Z,51.47
2019-01-10T04:55:41.933Z,44.27
2019-01-10T04:58:09.664Z,49.00
2019-01-10T05:00:37.072Z,47.53
2019-01-10T05:03:04.525Z,46.13
2019-01-10T05:05:31.927Z,46.00
2019-01-10T05:07:59.795Z,42.90
2019-01-10T05:10:27.305Z,43.63
2019-01-10T05:12:54.742Z,42.80
2019-01-10T05:15:22.275Z,43.53
2019-01-10T05:17:49.815Z,42.47
2019-01-10T05:20:17.818Z,43.67
2019-01-10T05:22:45.235Z,47.10
2019-01-10T05:25:12.727Z,43.67
2019-01-10T05:27:40.187Z,45.63
2019-01-10T05:30:18.541Z,46.77
2019-01-10T05:32:46.008Z,43.70
2019-01-10T05:35:13.437Z,45.17
2019-01-10T05:37:40.897Z,46.07
2019-01-10T05:40:09.888Z,39.23
2019-01-10T05:42:37.311Z,40.57
2019-01-10T05:45:06.389Z,37.50
2019-01-10T05:47:35.707Z,38.10
2019-01-10T05:50:03.219Z,33.73
2019-01-10T05:52:30.798Z,36.80
2019-01-10T05:54:58.230Z,34.50
2019-01-10T05:57:25.625Z,31.00
2019-01-10T05:59:53.157Z,33.70
2019-01-10T06:02:20.597Z,28.93
2019-01-10T06:04:48.165Z,30.63
2019-01-10T06:07:15.556Z,22.93
2019-01-10T06:09:42.956Z,33.33
2019-01-10T06:12:10.348Z,31.60
2019-01-10T06:14:37.811Z,28.43
2019-01-10T06:17:05.214Z,34.53
2019-01-10T06:19:32.646Z,33.97
2019-01-10T06:22:00.244Z,32.73
2019-01-10T06:24:27.712Z,32.37
2019-01-10T06:26:55.068Z,31.47
2019-01-10T06:29:22.488Z,25.70
2019-01-10T06:31:49.877Z,27.27
2019-01-10T06:34:17.212Z,32.63
2019-01-10T06:36:44.698Z,33.00
2019-01-10T06:39:12.160Z,33.27
2019-01-10T06:41:39.587Z,26.83
2019-01-10T06:44:07.037Z,34.33
2019-01-10T06:46:34.453Z,34.83
2019-01-10T06:49:01.807Z,30.00
2019-01-10T06:51:29.201Z,35.07
2019-01-10T06:53:56.534Z,40.00
2019-01-10T06:56:23.964Z,37.43
2019-01-10T06:58:51.434Z,38.27
2019-01-10T07:01:18.842Z,40.90
2019-01-10T07:03:46.330Z,40.23
2019-01-10T07:06:13.879Z,42.77
2019-01-10T07:08:41.306Z,44.87
2019-01-10T07:11:08.699Z,42.10
2019-01-10T07:13:36.158Z,44.90
2019-01-10T07:16:04.545Z,45.60
2019-01-10T07:18:33.418Z,47.17
2019-01-10T07:21:00.988Z,43.33
2019-01-10T07:23:29.362Z,45.10
2019-01-10T07:25:56.688Z,42.87
2019-01-10T07:28:24.149Z,48.13
2019-01-10T07:30:52.120Z,46.70
2019-01-10T07:33:19.966Z,45.87
2019-01-10T07:35:50.611Z,43.33
2019-01-10T07:38:17.986Z,43.67
2019-01-10T07:40:48.321Z,46.67
2019-01-10T07:43:18.840Z,49.30
2019-01-10T07:45:46.341Z,49.80
2019-01-10T07:48:13.757Z,51.60
2019-01-10T07:50:41.172Z,55.87
2019-01-10T07:53:08.847Z,49.03
2019-01-10T07:55:36.250Z,53.60
2019-01-10T07:58:05.122Z,47.50
2019-01-10T08:00:32.905Z,48.73
2019-01-10T08:03:00.221Z,50.30
2019-01-10T08:05:27.598Z,49.03
2019-01-10T08:07:55.187Z,46.50
2019-01-10T08:10:22.531Z,44.27
2019-01-10T08:12:50.024Z,53.80
2019-01-10T08:15:18.616Z,50.53
2019-01-10T08:17:46.076Z,52.47
2019-01-10T08:20:13.600Z,54.10
2019-01-10T08:22:41.193Z,55.67
2019-01-10T08:25:09.402Z,53.37
2019-01-10T08:27:36.788Z,59.93
2019-01-10T08:30:05.757Z,58.33
2019-01-10T08:32:33.167Z,57.10
2019-01-10T08:35:00.704Z,60.97
2019-01-10T08:37:28.056Z,62.00
2019-01-10T08:39:55.377Z,60.23
2019-01-10T08:42:22.836Z,65.77
2019-01-10T08:44:51.184Z,65.10
2019-01-10T08:47:18.664Z,67.00
2019-01-10T08:49:46.187Z,67.67
2019-01-10T08:52:14.490Z,71.47
2019-01-10T08:54:41.989Z,70.30
2019-01-10T08:57:09.424Z,69.03
2019-01-10T08:59:36.935Z,68.37
2019-01-10T09:02:04.408Z,63.87
2019-01-10T09:04:33.686Z,59.30
2019-01-10T09:07:01.050Z,60.63
2019-01-10T09:09:28.376Z,63.23
2019-01-10T09:11:55.904Z,54.27
2019-01-10T09:14:23.242Z,59.47
2019-01-10T09:16:50.602Z,46.30
2019-01-10T09:19:18.172Z,55.90
2019-01-10T09:21:45.576Z,54.13
2019-01-10T09:24:14.370Z,57.47
2019-01-10T09:26:41.963Z,51.73
2019-01-10T09:29:10.318Z,52.17
2019-01-10T09:31:37.720Z,53.00
2019-01-10T09:34:06.653Z,51.40
2019-01-10T09:36:34.049Z,52.67
2019-01-10T09:39:01.413Z,57.87
2019-01-10T09:41:31.789Z,53.53
2019-01-10T09:44:00.443Z,47.27
2019-01-10T09:46:27.947Z,41.17
2019-01-10T09:48:55.460Z,45.07
2019-01-10T09:51:22.852Z,42.87
2019-01-10T09:53:50.292Z,50.23
2019-01-10T09:56:17.670Z,50.37
2019-01-10T09:58:46.744Z,51.10
2019-01-10T10:01:15.591Z,52.50
2019-01-10T10:03:43.007Z,55.13
2019-01-10T10:06:10.397Z,48.37
2019-01-10T10:08:37.802Z,44.43
2019-01-10T10:11:05.320Z,46.97
2019-01-10T10:13:32.829Z,44.10
2019-01-10T10:16:00.201Z,46.63
2019-01-10T10:18:27.748Z,44.37
2019-01-10T10:20:55.160Z,48.07
2019-01-10T10:23:26.943Z,46.27
2019-01-10T10:25:53.232Z,47.50
2019-01-10T10:28:23.407Z,46.30
2019-01-10T10:30:50.761Z,49.10
2019-01-10T10:33:18.209Z,47.00
2019-01-10T10:35:47.925Z,43.70
2019-01-10T10:38:15.704Z,44.97
2019-01-10T10:40:43.247Z,48.97
2019-01-10T10:43:12.045Z,51.30
2019-01-10T10:45:39.467Z,47.73
2019-01-10T10:48:07.047Z,51.20
2019-01-10T10:50:34.370Z,48.90
2019-01-10T10:53:03.437Z,47.83
2019-01-10T10:55:30.989Z,48.80
2019-01-10T10:57:58.349Z,49.03
2019-01-10T11:00:26.432Z,49.33
2019-01-10T11:02:53.911Z,53.77
2019-01-10T11:05:21.424Z,56.50
2019-01-10T11:07:49.001Z,57.43
2019-01-10T11:10:20.333Z,57.33
2019-01-10T11:12:47.808Z,53.33
2019-01-10T11:15:15.730Z,57.53
2019-01-10T11:17:43.097Z,49.93
2019-01-10T11:20:11.931Z,48.67
2019-01-10T11:22:39.353Z,49.47
2019-01-10T11:25:08.427Z,52.70
2019-01-10T11:27:35.857Z,46.37
2019-01-10T11:30:05.278Z,43.07
2019-01-10T11:32:32.716Z,42.03
2019-01-10T11:35:00.171Z,42.70
2019-01-10T11:37:27.554Z,43.07
2019-01-10T11:39:57.587Z,44.23
2019-01-10T11:42:24.920Z,34.33
2019-01-10T11:44:54.129Z,41.37
2019-01-10T11:47:21.579Z,26.17
2019-01-10T11:49:49.032Z,35.38
2019-01-10T11:52:16.886Z,32.77
2019-01-10T11:54:44.402Z,35.63
2019-01-10T11:57:12.286Z,36.07
2019-01-10T11:59:39.630Z,35.60
2019-01-10T12:02:08.292Z,39.67
2019-01-10T12:04:40.828Z,41.83
2019-01-10T12:07:09.470Z,37.07
2019-01-10T12:09:36.977Z,39.17
2019-01-10T12:12:04.443Z,36.97
2019-01-10T12:14:31.795Z,41.77
2019-01-10T12:16:59.310Z,42.67
2019-01-10T12:19:26.713Z,39.70
2019-01-10T12:21:54.050Z,38.73
2019-01-10T12:24:21.429Z,51.97
2019-01-10T12:26:48.897Z,51.20
2019-01-10T12:29:16.309Z,51.87
2019-01-10T12:31:44.267Z,49.03
2019-01-10T12:34:11.743Z,58.83
2019-01-10T12:36:39.093Z,53.63
2019-01-10T12:39:07.024Z,49.53
2019-01-10T12:41:34.386Z,43.53
2019-01-10T12:44:01.735Z,42.07
2019-01-10T12:46:37.272Z,40.47
2019-01-10T12:48:58.248Z,40.40
2019-01-10T12:51:25.604Z,39.00
2019-01-10T12:53:53.020Z,35.73
2019-01-10T12:56:22.079Z,34.90
2019-01-10T12:58:49.485Z,34.17
2019-01-10T13:01:17.131Z,37.67
2019-01-10T13:03:44.569Z,38.37
2019-01-10T13:06:11.957Z,42.30
2019-01-10T13:08:39.414Z,34.37
2019-01-10T13:11:06.867Z,37.80
2019-01-10T13:13:34.274Z,39.13
2019-01-10T13:16:01.824Z,38.70
2019-01-10T13:18:29.219Z,40.77
2019-01-10T13:20:56.611Z,41.57
2019-01-10T13:23:24.070Z,39.93
2019-01-10T13:25:59.330Z,42.90
2019-01-10T13:28:20.633Z,43.93
2019-01-10T13:30:48.001Z,46.80
2019-01-10T13:33:15.422Z,45.60
2019-01-10T13:35:42.826Z,46.97
2019-01-10T13:38:10.283Z,46.33
2019-01-10T13:40:37.678Z,44.93
2019-01-10T13:43:05.088Z,43.77
2019-01-10T13:45:32.601Z,47.83
2019-01-10T13:48:00.072Z,44.87
2019-01-10T13:50:28.021Z,46.97
2019-01-10T13:52:56.500Z,46.90
2019-01-10T13:55:24.472Z,44.87
2019-01-10T13:57:51.900Z,46.80
2019-01-10T14:00:20.450Z,47.73
2019-01-10T14:02:47.779Z,50.13
2019-01-10T14:05:15.222Z,46.70
2019-01-10T14:07:42.751Z,48.07
2019-01-10T14:10:11.750Z,47.40
2019-01-10T14:12:39.286Z,45.27
2019-01-10T14:15:08.538Z,51.03
2019-01-10T14:17:36.007Z,52.50
2019-01-10T14:20:04.340Z,62.33
2019-01-10T14:22:34.429Z,52.10
2019-01-10T14:25:01.825Z,60.20
2019-01-10T14:27:29.222Z,59.17
2019-01-10T14:29:59.549Z,54.33
2019-01-10T14:32:27.008Z,53.53
2019-01-10T14:34:58.732Z,52.23
2019-01-10T14:37:26.624Z,53.73
2019-01-10T14:39:54.034Z,57.23
2019-01-10T14:42:21.353Z,50.07
2019-01-10T14:44:58.079Z,46.83
2019-01-10T14:47:26.926Z,50.00
2019-01-10T14:49:56.952Z,45.30
2019-01-10T14:52:27.131Z,41.43
2019-01-10T14:54:53.773Z,45.47
2019-01-10T14:57:21.145Z,44.93
2019-01-10T14:59:48.533Z,45.87
2019-01-10T15:02:15.932Z,43.77
2019-01-10T15:04:47.020Z,46.07
2019-01-10T15:07:14.447Z,46.07
2019-01-10T15:09:41.787Z,41.43
2019-01-10T15:12:09.307Z,49.47
2019-01-10T15:14:36.741Z,48.30
2019-01-10T15:17:04.076Z,55.10
2019-01-10T15:19:31.616Z,48.73
2019-01-10T15:21:59.097Z,57.70
2019-01-10T15:24:26.583Z,52.33
2019-01-10T15:26:53.961Z,41.00
2019-01-10T15:29:21.757Z,44.77
2019-01-10T15:31:49.251Z,51.03
2019-01-10T15:34:16.629Z,49.77
2019-01-10T15:36:43.977Z,52.10
2019-01-10T15:39:12.015Z,52.37
2019-01-10T15:41:39.404Z,41.83
2019-01-10T15:44:06.740Z,40.77
2019-01-10T15:46:34.137Z,41.20
2019-01-10T15:49:01.585Z,44.40
2019-01-10T15:51:29.002Z,43.80
2019-01-10T15:53:58.952Z,44.30
2019-01-10T15:56:26.573Z,46.40
2019-01-10T15:58:54.027Z,40.80
2019-01-10T16:01:21.362Z,52.60
2019-01-10T16:03:48.888Z,41.93
2019-01-10T16:06:16.269Z,45.33
2019-01-10T16:08:43.624Z,43.33
2019-01-10T16:11:12.324Z,43.97
2019-01-10T16:13:39.793Z,48.27
2019-01-10T16:16:07.190Z,48.40
2019-01-10T16:18:34.862Z,41.20
2019-01-10T16:21:02.292Z,44.07
2019-01-10T16:23:29.755Z,46.50
2019-01-10T16:25:57.298Z,43.37
2019-01-10T16:28:26.400Z,44.00
2019-01-10T16:30:53.815Z,39.47
2019-01-10T16:33:21.190Z,29.83
2019-01-10T16:35:48.539Z,39.80
2019-01-10T16:38:16.025Z,38.93
2019-01-10T16:40:43.567Z,36.80
2019-01-10T16:43:12.038Z,37.53
2019-01-10T16:45:39.553Z,40.23
2019-01-10T16:48:07.161Z,39.87
2019-01-10T16:50:34.717Z,38.20
2019-01-10T16:53:02.117Z,33.67
2019-01-10T16:55:29.499Z,41.70
2019-01-10T16:57:56.996Z,40.63
2019-01-10T17:00:25.506Z,48.50
2019-01-10T17:02:54.604Z,43.73
2019-01-10T17:05:25.237Z,36.87
2019-01-10T17:07:52.815Z,44.80
2019-01-10T17:10:20.307Z,44.70
2019-01-10T17:12:47.651Z,36.27
2019-01-10T17:15:15.312Z,43.27
2019-01-10T17:17:44.308Z,39.03
2019-01-10T17:20:16.944Z,36.93
2019-01-10T17:22:44.560Z,41.43
2019-01-10T17:25:12.088Z,43.00
2019-01-10T17:27:40.710Z,46.13
2019-01-10T17:30:09.753Z,46.07
2019-01-10T17:32:37.606Z,47.43
2019-01-10T17:35:06.548Z,48.37
2019-01-10T17:37:33.994Z,46.10
2019-01-10T17:40:01.824Z,45.00
2019-01-10T17:42:29.592Z,45.90
2019-01-10T17:44:56.971Z,50.70
2019-01-10T17:47:24.389Z,51.77
2019-01-10T17:49:51.786Z,49.17
2019-01-10T17:52:24.956Z,50.27
2019-01-10T17:54:48.350Z,54.33
2019-01-10T17:57:15.667Z,50.43
2019-01-10T17:59:43.025Z,49.90
2019-01-10T18:02:10.562Z,51.33
2019-01-10T18:04:38.036Z,44.77
2019-01-10T18:07:05.520Z,36.10
2019-01-10T18:09:32.923Z,45.47
2019-01-10T18:12:01.967Z,40.83
2019-01-10T18:14:30.620Z,51.60
2019-01-10T18:16:59.650Z,53.27
2019-01-10T18:19:27.268Z,47.47
2019-01-10T18:21:54.677Z,47.83
2019-01-10T18:24:22.192Z,47.70
2019-01-10T18:26:49.733Z,45.30
2019-01-10T18:29:17.165Z,43.87
2019-01-10T18:31:44.632Z,48.60
2019-01-10T18:34:12.635Z,51.77
2019-01-10T18:36:40.190Z,49.03
2019-01-10T18:39:08.838Z,43.30
2019-01-10T18:41:36.376Z,52.80
2019-01-10T18:44:06.526Z,56.43
2019-01-10T18:46:33.928Z,49.23
2019-01-10T18:49:01.405Z,51.77
2019-01-10T18:51:28.946Z,49.73
2019-01-10T18:53:58.859Z,53.67
2019-01-10T18:56:26.589Z,55.20
2019-01-10T18:58:54.005Z,58.70
2019-01-10T19:01:21.511Z,55.97
2019-01-10T19:03:49.105Z,58.77
2019-01-10T19:06:18.311Z,60.23
2019-01-10T19:08:45.964Z,61.77
2019-01-10T19:11:13.665Z,43.57
2019-01-10T19:13:41.196Z,52.10
2019-01-10T19:16:08.780Z,52.23
2019-01-10T19:18:36.197Z,55.83
2019-01-10T19:21:03.571Z,55.67
2019-01-10T19:23:32.182Z,59.23
2019-01-10T19:25:59.609Z,43.63
2019-01-10T19:28:27.149Z,61.43
2019-01-10T19:30:54.690Z,63.70
2019-01-10T19:33:22.131Z,61.67
2019-01-10T19:35:49.645Z,69.93
2019-01-10T19:38:17.103Z,70.07
2019-01-10T19:40:44.546Z,66.37
2019-01-10T19:43:12.466Z,65.20
2019-01-10T19:45:40.051Z,61.90
2019-01-10T19:48:10.191Z,72.60
2019-01-10T19:50:37.710Z,71.03
2019-01-10T19:53:05.288Z,67.23
2019-01-10T19:55:34.407Z,67.73
2019-01-10T19:58:01.821Z,66.80
2019-01-10T20:00:30.634Z,73.10
2019-01-10T20:02:58.232Z,39.40
2019-01-10T20:05:26.000Z,64.30
2019-01-10T20:07:59.378Z,61.37
2019-01-10T20:10:26.841Z,51.40
2019-01-10T20:12:54.268Z,58.53
2019-01-10T20:15:21.702Z,62.23
2019-01-10T20:17:49.410Z,59.03
2019-01-10T20:20:24.338Z,58.57
2019-01-10T20:22:52.158Z,62.73
2019-01-10T20:25:19.549Z,62.50
2019-01-10T20:27:47.022Z,65.43
2019-01-10T20:30:16.579Z,63.40
2019-01-10T20:32:44.041Z,50.77
2019-01-10T20:35:13.181Z,60.43
2019-01-10T20:37:48.283Z,60.03
2019-01-10T20:40:19.051Z,47.93
2019-01-10T20:42:46.486Z,50.73
2019-01-10T20:45:13.954Z,52.60
2019-01-10T20:47:41.433Z,50.70
2019-01-10T20:50:10.275Z,51.77
2019-01-10T20:52:37.681Z,49.00
2019-01-10T20:55:07.075Z,54.13
2019-01-10T20:57:36.271Z,50.90
2019-01-10T21:00:05.256Z,45.63
2019-01-10T21:02:32.742Z,51.20
2019-01-10T21:05:01.431Z,51.47
2019-01-10T21:07:30.511Z,50.53
2019-01-10T21:10:00.771Z,48.87
2019-01-10T21:12:28.275Z,50.63
2019-01-10T21:14:55.931Z,53.93
2019-01-10T21:17:23.317Z,51.50
2019-01-10T21:19:50.808Z,50.17
2019-01-10T21:22:18.319Z,57.53
2019-01-10T21:24:45.793Z,55.90
2019-01-10T21:27:13.282Z,52.33
2019-01-10T21:29:40.739Z,45.00
2019-01-10T21:32:08.210Z,45.13
2019-01-10T21:34:35.723Z,50.70
2019-01-10T21:37:04.376Z,51.27
2019-01-10T21:39:31.841Z,46.83
2019-01-10T21:41:59.453Z,49.17
2019-01-10T21:44:28.391Z,47.00
2019-01-10T21:46:56.136Z,50.10
2019-01-10T21:49:23.685Z,53.27
2019-01-10T21:51:51.174Z,52.27
2019-01-10T21:54:20.167Z,59.30
2019-01-10T21:56:48.350Z,52.90
2019-01-10T21:59:15.740Z,55.97
2019-01-10T22:01:43.142Z,55.43
2019-01-10T22:04:10.795Z,55.77
2019-01-10T22:06:38.264Z,48.07
2019-01-10T22:09:06.378Z,41.20
2019-01-10T22:11:33.914Z,49.00
2019-01-10T22:14:01.352Z,46.07
2019-01-10T22:16:28.751Z,48.03
2019-01-10T22:18:56.262Z,49.27
2019-01-10T22:21:23.675Z,49.37
2019-01-10T22:23:51.095Z,49.87
2019-01-10T22:26:18.578Z,47.27
2019-01-10T22:28:47.573Z,48.83
2019-01-10T22:31:15.034Z,53.70
2019-01-10T22:33:44.463Z,51.40
2019-01-10T22:36:11.950Z,56.93
2019-01-10T22:38:40.341Z,58.10
2019-01-10T22:41:07.798Z,56.17
2019-01-10T22:43:35.238Z,56.43
2019-01-10T22:46:02.682Z,57.07
2019-01-10T22:48:30.201Z,57.40
2019-01-10T22:50:57.694Z,57.00
2019-01-10T22:53:25.189Z,55.07
2019-01-10T22:55:52.680Z,56.27
2019-01-10T22:58:22.897Z,52.37
2019-01-10T23:00:59.398Z,54.50
2019-01-10T23:03:27.710Z,55.83
2019-01-10T23:05:55.144Z,52.07
2019-01-10T23:08:22.657Z,54.20
2019-01-10T23:10:49.994Z,54.80
2019-01-10T23:13:17.378Z,52.90
2019-01-10T23:15:44.805Z,50.57
2019-01-10T23:18:12.192Z,53.33
2019-01-10T23:20:39.681Z,53.97
2019-01-10T23:23:08.322Z,55.37
2019-01-10T23:25:35.830Z,48.17
2019-01-10T23:28:03.464Z,55.53
2019-01-10T23:30:47.281Z,54.77
2019-01-10T23:33:14.766Z,56.90
2019-01-10T23:35:42.179Z,56.80
2019-01-10T23:38:10.400Z,56.47
2019-01-10T23:40:37.795Z,56.73
2019-01-10T23:43:05.560Z,57.27
2019-01-10T23:45:33.068Z,54.23
2019-01-10T23:48:01.500Z,57.00
2019-01-10T23:50:31.485Z,52.37
2019-01-10T23:52:59.128Z,56.47
2019-01-10T23:55:29.043Z,55.53
2019-01-10T23:57:56.562Z,61.30
